createdAt,value
2019-05-21T00:01:33.809Z,90.70
2019-05-21T00:04:00.132Z,90.70
2019-05-21T00:06:26.417Z,90.90
2019-05-21T00:08:52.625Z,90.60
2019-05-21T00:11:18.914Z,90.70
2019-05-21T00:13:45.159Z,90.70
2019-05-21T00:16:11.373Z,90.70
2019-05-21T00:18:38.702Z,90.60
2019-05-21T00:21:04.937Z,90.70
2019-05-21T00:23:31.146Z,90.60
2019-05-21T00:25:57.357Z,91.00
2019-05-21T00:28:37.209Z,90.60
2019-05-21T00:31:42.550Z,90.60
2019-05-21T00:34:47.148Z,90.70
2019-05-21T00:37:51.513Z,90.70
2019-05-21T00:40:55.321Z,90.70
2019-05-21T00:43:40.749Z,90.80
2019-05-21T00:46:06.972Z,90.80
2019-05-21T00:48:33.218Z,90.70
2019-05-21T00:50:59.438Z,90.70
2019-05-21T00:53:25.781Z,90.80
2019-05-21T00:55:52.241Z,90.70
2019-05-21T00:58:18.521Z,90.70
2019-05-21T01:00:44.848Z,90.70
2019-05-21T01:03:11.073Z,90.60
2019-05-21T01:05:37.289Z,90.70
2019-05-21T01:08:03.561Z,90.60
2019-05-21T01:10:29.772Z,90.50
2019-05-21T01:12:56.002Z,90.50
2019-05-21T01:15:22.433Z,90.50
2019-05-21T01:17:49.207Z,90.50
2019-05-21T01:20:15.674Z,90.40
2019-05-21T01:22:41.916Z,90.50
2019-05-21T01:25:08.340Z,90.40
2019-05-21T01:27:34.640Z,90.40
2019-05-21T01:30:00.869Z,90.40
2019-05-21T01:32:27.106Z,90.30
2019-05-21T01:34:53.409Z,90.40
2019-05-21T01:37:19.653Z,90.50
2019-05-21T01:39:45.937Z,90.40
2019-05-21T01:42:12.149Z,90.30
2019-05-21T01:44:38.407Z,90.30
2019-05-21T01:47:04.690Z,90.40
2019-05-21T01:49:30.945Z,90.50
2019-05-21T01:51:57.213Z,90.60
2019-05-21T01:54:23.423Z,90.70
2019-05-21T01:56:49.641Z,90.80
2019-05-21T01:59:15.890Z,90.90
2019-05-21T02:01:42.201Z,90.80
2019-05-21T02:04:08.425Z,90.80
2019-05-21T02:06:34.677Z,90.90
2019-05-21T02:09:00.914Z,90.80
2019-05-21T02:11:27.401Z,91.10
2019-05-21T02:13:53.734Z,90.90
2019-05-21T02:16:19.954Z,91.10
2019-05-21T02:18:46.173Z,91.10
2019-05-21T02:21:12.433Z,91.10
2019-05-21T02:23:38.640Z,91.20
2019-05-21T02:26:04.864Z,91.30
2019-05-21T02:28:31.111Z,91.20
2019-05-21T02:30:57.338Z,91.30
2019-05-21T02:33:23.738Z,91.30
2019-05-21T02:35:54.351Z,91.40
2019-05-21T02:38:18.197Z,91.40
2019-05-21T02:40:44.509Z,91.40
2019-05-21T02:43:10.842Z,91.40
2019-05-21T02:45:37.055Z,91.50
2019-05-21T02:48:03.573Z,91.80
2019-05-21T02:50:30.014Z,91.70
2019-05-21T02:52:56.324Z,91.80
2019-05-21T02:55:22.637Z,91.80
2019-05-21T02:57:48.994Z,91.70
2019-05-21T03:00:38.238Z,91.70
2019-05-21T03:03:03.863Z,91.60
2019-05-21T03:05:30.073Z,91.60
2019-05-21T03:07:56.378Z,91.60
2019-05-21T03:10:22.722Z,91.70
2019-05-21T03:12:49.733Z,91.70
2019-05-21T03:15:16.018Z,91.70
2019-05-21T03:17:42.254Z,91.80
2019-05-21T03:20:10.781Z,91.70
2019-05-21T03:22:37.086Z,91.60
2019-05-21T03:25:05.042Z,91.70
2019-05-21T03:27:31.273Z,91.70
2019-05-21T03:29:57.601Z,91.60
2019-05-21T03:32:24.042Z,91.60
2019-05-21T03:34:50.355Z,91.50
2019-05-21T03:37:16.663Z,91.50
2019-05-21T03:39:42.886Z,91.40
2019-05-21T03:42:09.102Z,91.50
2019-05-21T03:44:35.517Z,91.50
2019-05-21T03:47:01.924Z,91.50
2019-05-21T03:49:28.334Z,91.40
2019-05-21T03:51:54.588Z,91.40
2019-05-21T03:54:20.809Z,91.40
2019-05-21T03:56:47.034Z,91.30
2019-05-21T03:59:13.361Z,91.70
2019-05-21T04:01:39.590Z,91.30
2019-05-21T04:04:05.905Z,91.20
2019-05-21T04:06:48.917Z,91.30
2019-05-21T04:09:00.345Z,91.30
2019-05-21T04:11:26.567Z,91.20
2019-05-21T04:13:52.790Z,91.20
2019-05-21T04:16:21.031Z,91.00
2019-05-21T04:19:06.059Z,91.10
2019-05-21T04:21:32.292Z,91.20
2019-05-21T04:23:58.502Z,91.10
2019-05-21T04:26:24.715Z,91.00
2019-05-21T04:28:51.066Z,91.10
2019-05-21T04:31:17.289Z,91.20
2019-05-21T04:33:43.608Z,91.00
2019-05-21T04:36:09.855Z,90.90
2019-05-21T04:38:36.066Z,90.90
2019-05-21T04:41:02.381Z,91.00
2019-05-21T04:43:28.726Z,91.00
2019-05-21T04:45:54.962Z,90.90
2019-05-21T04:48:21.299Z,90.90
2019-05-21T04:50:47.674Z,91.00
2019-05-21T04:53:13.894Z,90.90
2019-05-21T04:55:40.209Z,90.70
2019-05-21T04:58:06.441Z,90.80
2019-05-21T05:00:32.750Z,90.80
2019-05-21T05:02:58.962Z,91.00
2019-05-21T05:05:25.198Z,90.80
2019-05-21T05:07:51.473Z,90.80
2019-05-21T05:10:17.791Z,90.80
2019-05-21T05:12:44.121Z,90.60
2019-05-21T05:15:10.534Z,90.30
2019-05-21T05:17:36.877Z,90.30
2019-05-21T05:20:03.887Z,90.50
2019-05-21T05:22:30.211Z,90.60
2019-05-21T05:24:56.525Z,90.50
2019-05-21T05:27:22.773Z,90.50
2019-05-21T05:29:48.985Z,90.30
2019-05-21T05:32:15.210Z,90.50
2019-05-21T05:34:41.445Z,90.40
2019-05-21T05:37:07.662Z,90.50
2019-05-21T05:39:33.885Z,90.50
2019-05-21T05:42:00.127Z,90.60
2019-05-21T05:44:26.334Z,90.70
2019-05-21T05:46:52.545Z,90.50
2019-05-21T05:49:23.529Z,90.40
2019-05-21T05:51:49.737Z,90.50
2019-05-21T05:54:15.961Z,90.40
2019-05-21T05:56:42.197Z,90.40
2019-05-21T05:59:08.609Z,90.40
2019-05-21T06:01:34.934Z,90.30
2019-05-21T06:04:01.241Z,90.30
2019-05-21T06:06:27.496Z,90.30
2019-05-21T06:08:54.822Z,90.40
2019-05-21T06:11:21.181Z,90.50
2019-05-21T06:13:47.386Z,90.40
2019-05-21T06:16:13.606Z,90.30
2019-05-21T06:18:39.945Z,90.20
2019-05-21T06:21:06.270Z,90.20
2019-05-21T06:23:32.514Z,90.10
2019-05-21T06:25:58.757Z,90.20
2019-05-21T06:28:24.971Z,90.20
2019-05-21T06:30:51.206Z,90.10
2019-05-21T06:33:18.546Z,90.20
2019-05-21T06:35:45.065Z,90.20
2019-05-21T06:38:17.819Z,90.10
2019-05-21T06:40:41.313Z,90.10
2019-05-21T06:43:07.633Z,90.10
2019-05-21T06:45:33.943Z,90.10
2019-05-21T06:48:00.194Z,90.10
2019-05-21T06:50:26.410Z,90.10
2019-05-21T06:52:52.620Z,89.90
2019-05-21T06:55:18.866Z,89.90
2019-05-21T06:57:45.092Z,90.00
2019-05-21T07:00:12.317Z,89.60
2019-05-21T07:02:38.559Z,89.40
2019-05-21T07:05:04.989Z,89.30
2019-05-21T07:07:31.302Z,89.20
2019-05-21T07:09:57.549Z,89.20
2019-05-21T07:12:23.818Z,89.20
2019-05-21T07:14:50.111Z,89.00
2019-05-21T07:17:16.355Z,89.20
2019-05-21T07:19:42.561Z,89.60
2019-05-21T07:22:12.966Z,88.70
2019-05-21T07:24:36.949Z,88.80
2019-05-21T07:27:03.237Z,88.30
2019-05-21T07:29:29.461Z,88.10
2019-05-21T07:31:55.702Z,87.70
2019-05-21T07:34:22.167Z,87.40
2019-05-21T07:36:48.381Z,87.20
2019-05-21T07:39:14.637Z,86.90
2019-05-21T07:41:40.944Z,86.80
2019-05-21T07:44:07.258Z,86.70
2019-05-21T07:46:33.535Z,87.40
2019-05-21T07:48:59.837Z,86.50
2019-05-21T07:51:26.056Z,86.80
2019-05-21T07:53:52.297Z,86.20
2019-05-21T07:56:18.510Z,86.10
2019-05-21T07:58:44.729Z,86.70
2019-05-21T08:01:10.969Z,86.30
2019-05-21T08:03:37.193Z,85.60
2019-05-21T08:06:03.623Z,85.50
2019-05-21T08:08:29.937Z,85.30
2019-05-21T08:10:56.294Z,84.30
2019-05-21T08:13:22.607Z,83.50
2019-05-21T08:15:48.990Z,83.00
2019-05-21T08:18:15.253Z,83.40
2019-05-21T08:20:41.469Z,82.30
2019-05-21T08:23:07.716Z,81.90
2019-05-21T08:25:34.047Z,82.50
2019-05-21T08:28:01.566Z,83.10
2019-05-21T08:30:27.910Z,83.00
2019-05-21T08:32:54.290Z,82.50
2019-05-21T08:35:20.695Z,82.30
2019-05-21T08:37:46.945Z,82.70
2019-05-21T08:40:13.361Z,82.50
2019-05-21T08:42:39.587Z,82.90
2019-05-21T08:45:07.113Z,83.20
2019-05-21T08:47:33.378Z,83.40
2019-05-21T08:49:59.641Z,83.50
2019-05-21T08:52:25.929Z,84.20
2019-05-21T08:54:55.878Z,84.20
2019-05-21T08:57:20.408Z,84.30
2019-05-21T08:59:46.959Z,84.00
2019-05-21T09:02:13.357Z,84.30
2019-05-21T09:04:46.188Z,85.00
2019-05-21T09:07:08.101Z,84.80
2019-05-21T09:09:49.213Z,84.80
2019-05-21T09:12:03.469Z,84.90
2019-05-21T09:14:30.758Z,84.70
2019-05-21T09:16:56.969Z,84.70
2019-05-21T09:19:23.209Z,84.80
2019-05-21T09:21:49.638Z,84.30
2019-05-21T09:24:15.958Z,84.60
2019-05-21T09:26:42.386Z,84.90
2019-05-21T09:29:09.711Z,85.40
2019-05-21T09:31:35.923Z,85.80
2019-05-21T09:34:02.400Z,85.60
2019-05-21T09:36:28.650Z,85.60
2019-05-21T09:38:54.866Z,85.80
2019-05-21T09:41:21.260Z,85.20
2019-05-21T09:43:47.641Z,84.40
2019-05-21T09:46:13.853Z,83.70
2019-05-21T09:48:40.183Z,83.40
2019-05-21T09:51:06.533Z,83.40
2019-05-21T09:53:32.858Z,82.90
2019-05-21T09:56:00.973Z,82.80
2019-05-21T09:58:29.105Z,81.70
2019-05-21T10:01:09.442Z,82.40
2019-05-21T10:03:37.685Z,82.70
2019-05-21T10:06:04.097Z,83.00
2019-05-21T10:08:30.323Z,82.50
2019-05-21T10:10:57.665Z,82.40
2019-05-21T10:13:23.886Z,82.10
2019-05-21T10:15:50.205Z,82.50
2019-05-21T10:18:16.447Z,82.00
2019-05-21T10:20:42.672Z,82.10
2019-05-21T10:23:08.889Z,81.90
2019-05-21T10:25:35.253Z,81.60
2019-05-21T10:28:01.668Z,81.40
2019-05-21T10:30:27.981Z,81.60
2019-05-21T10:32:54.217Z,81.60
2019-05-21T10:35:20.612Z,81.90
2019-05-21T10:37:54.892Z,81.50
2019-05-21T10:40:15.461Z,82.70
2019-05-21T10:42:41.669Z,82.70
2019-05-21T10:45:08.115Z,81.80
2019-05-21T10:47:34.446Z,81.50
2019-05-21T10:50:00.666Z,80.70
2019-05-21T10:52:26.890Z,81.80
2019-05-21T10:54:53.129Z,82.60
2019-05-21T10:57:19.455Z,80.50
2019-05-21T10:59:45.779Z,81.10
2019-05-21T11:02:26.222Z,79.10
2019-05-21T11:04:54.350Z,78.50
2019-05-21T11:07:20.785Z,78.60
2019-05-21T11:09:47.099Z,77.80
2019-05-21T11:12:13.418Z,77.80
2019-05-21T11:14:39.638Z,77.30
2019-05-21T11:17:07.777Z,77.40
2019-05-21T11:19:34.002Z,77.90
2019-05-21T11:22:00.242Z,76.50
2019-05-21T11:24:26.563Z,76.90
2019-05-21T11:26:52.978Z,77.10
2019-05-21T11:29:19.193Z,76.60
2019-05-21T11:31:56.518Z,76.60
2019-05-21T11:34:13.505Z,76.70
2019-05-21T11:36:39.801Z,76.40
2019-05-21T11:39:06.945Z,76.30
2019-05-21T11:41:33.175Z,76.10
2019-05-21T11:43:59.421Z,75.80
2019-05-21T11:46:25.668Z,75.70
2019-05-21T11:48:51.985Z,75.70
2019-05-21T11:51:18.391Z,75.70
2019-05-21T11:53:45.633Z,75.10
2019-05-21T11:56:11.859Z,74.10
2019-05-21T11:58:39.850Z,74.40
2019-05-21T12:01:06.478Z,73.10
2019-05-21T12:03:32.776Z,72.80
2019-05-21T12:05:59.098Z,73.10
2019-05-21T12:08:25.410Z,72.50
2019-05-21T12:10:51.749Z,72.70
2019-05-21T12:13:20.437Z,72.30
2019-05-21T12:15:45.998Z,72.30
2019-05-21T12:18:12.318Z,72.50
2019-05-21T12:20:38.555Z,72.00
2019-05-21T12:23:04.894Z,72.20
2019-05-21T12:25:31.215Z,71.80
2019-05-21T12:27:57.449Z,72.00
2019-05-21T12:30:24.842Z,71.00
2019-05-21T12:32:51.168Z,69.70
2019-05-21T12:35:17.493Z,69.60
2019-05-21T12:37:43.741Z,69.90
2019-05-21T12:40:10.925Z,71.80
2019-05-21T12:42:37.157Z,69.80
2019-05-21T12:45:05.414Z,69.50
2019-05-21T12:47:32.037Z,69.60
2019-05-21T12:49:58.345Z,70.40
2019-05-21T12:52:24.595Z,72.20
2019-05-21T12:54:50.880Z,70.90
2019-05-21T12:57:17.138Z,69.20
2019-05-21T12:59:43.409Z,69.90
2019-05-21T13:02:09.637Z,68.70
2019-05-21T13:04:35.873Z,69.30
2019-05-21T13:07:02.217Z,69.30
2019-05-21T13:09:32.716Z,68.00
2019-05-21T13:11:56.593Z,67.30
2019-05-21T13:14:23.419Z,66.30
2019-05-21T13:16:49.837Z,66.40
2019-05-21T13:19:16.041Z,65.90
2019-05-21T13:21:42.308Z,66.50
2019-05-21T13:24:08.606Z,65.70
2019-05-21T13:26:35.139Z,66.50
2019-05-21T13:29:01.573Z,66.60
2019-05-21T13:31:27.796Z,66.40
2019-05-21T13:33:54.112Z,67.20
2019-05-21T13:36:20.375Z,67.90
2019-05-21T13:38:46.781Z,67.50
2019-05-21T13:41:13.306Z,67.40
2019-05-21T13:43:39.708Z,68.10
2019-05-21T13:46:06.239Z,67.30
2019-05-21T13:48:32.658Z,66.00
2019-05-21T13:50:58.909Z,67.00
2019-05-21T13:53:25.242Z,67.80
2019-05-21T13:55:51.575Z,66.90
2019-05-21T13:58:18.015Z,66.40
2019-05-21T14:00:48.774Z,67.00
2019-05-21T14:03:15.296Z,65.70
2019-05-21T14:05:41.534Z,65.30
2019-05-21T14:08:07.793Z,64.20
2019-05-21T14:10:34.158Z,64.40
2019-05-21T14:13:01.111Z,64.50
2019-05-21T14:15:27.595Z,61.90
2019-05-21T14:17:53.917Z,63.40
2019-05-21T14:20:20.662Z,61.30
2019-05-21T14:22:47.890Z,61.30
2019-05-21T14:25:14.224Z,61.30
2019-05-21T14:27:45.089Z,61.40
2019-05-21T14:30:08.759Z,61.20
2019-05-21T14:32:35.244Z,60.80
2019-05-21T14:35:02.531Z,61.30
2019-05-21T14:37:28.927Z,61.00
2019-05-21T14:39:55.254Z,61.90
2019-05-21T14:42:21.525Z,61.40
2019-05-21T14:44:47.853Z,62.10
2019-05-21T14:47:15.175Z,60.60
2019-05-21T14:49:41.518Z,61.00
2019-05-21T14:52:09.049Z,62.10
2019-05-21T14:54:35.269Z,62.10
2019-05-21T14:57:03.449Z,62.40
2019-05-21T14:59:29.758Z,65.00
2019-05-21T15:01:56.057Z,62.00
2019-05-21T15:04:22.570Z,62.80
2019-05-21T15:06:49.010Z,62.90
2019-05-21T15:09:15.230Z,63.50
2019-05-21T15:11:41.490Z,65.50
2019-05-21T15:14:07.712Z,64.80
2019-05-21T15:16:34.029Z,65.40
2019-05-21T15:19:00.258Z,65.30
2019-05-21T15:21:28.499Z,64.80
2019-05-21T15:23:54.925Z,65.70
2019-05-21T15:26:21.278Z,64.20
2019-05-21T15:28:47.692Z,65.20
2019-05-21T15:31:14.049Z,64.90
2019-05-21T15:33:40.409Z,64.50
2019-05-21T15:36:06.753Z,64.20
2019-05-21T15:38:48.692Z,64.50
2019-05-21T15:41:10.919Z,63.90
2019-05-21T15:43:30.218Z,65.30
2019-05-21T15:45:56.525Z,66.50
2019-05-21T15:48:26.350Z,67.60
2019-05-21T15:50:50.764Z,69.20
2019-05-21T15:53:16.993Z,71.90
2019-05-21T15:55:43.341Z,73.10
2019-05-21T15:58:10.763Z,75.00
2019-05-21T16:00:37.177Z,76.20
2019-05-21T16:03:03.607Z,78.00
2019-05-21T16:05:30.027Z,77.50
2019-05-21T16:07:56.546Z,77.10
2019-05-21T16:10:22.769Z,76.40
2019-05-21T16:12:48.990Z,77.70
2019-05-21T16:15:15.410Z,77.30
2019-05-21T16:17:41.654Z,74.60
2019-05-21T16:20:08.578Z,75.40
2019-05-21T16:22:34.797Z,76.60
2019-05-21T16:25:01.141Z,77.10
2019-05-21T16:27:27.357Z,77.60
2019-05-21T16:29:53.598Z,77.50
2019-05-21T16:32:19.933Z,78.60
2019-05-21T16:34:47.143Z,78.10
2019-05-21T16:37:13.373Z,78.20
2019-05-21T16:39:39.613Z,78.20
2019-05-21T16:42:05.837Z,78.20
2019-05-21T16:44:32.150Z,78.60
2019-05-21T16:46:58.501Z,77.40
2019-05-21T16:49:24.805Z,77.70
2019-05-21T16:51:51.332Z,78.40
2019-05-21T16:54:17.861Z,78.80
2019-05-21T16:56:44.079Z,78.40
2019-05-21T16:59:10.317Z,78.60
2019-05-21T17:01:36.548Z,79.60
2019-05-21T17:04:03.073Z,79.40
2019-05-21T17:06:29.394Z,78.90
2019-05-21T17:08:55.637Z,79.20
2019-05-21T17:11:21.965Z,79.20
2019-05-21T17:13:48.278Z,78.60
2019-05-21T17:16:14.525Z,79.00
2019-05-21T17:18:40.758Z,79.00
2019-05-21T17:21:07.078Z,79.80
2019-05-21T17:23:33.441Z,80.50
2019-05-21T17:25:59.661Z,81.10
2019-05-21T17:28:25.969Z,81.20
2019-05-21T17:30:52.197Z,81.80
2019-05-21T17:33:18.410Z,82.20
2019-05-21T17:35:44.745Z,82.30
2019-05-21T17:38:11.389Z,83.00
2019-05-21T17:40:37.729Z,83.50
2019-05-21T17:43:04.049Z,83.80
2019-05-21T17:45:30.400Z,84.10
2019-05-21T17:47:56.706Z,84.80
2019-05-21T17:50:23.030Z,84.90
2019-05-21T17:52:49.549Z,84.70
2019-05-21T17:55:16.066Z,85.10
2019-05-21T17:57:42.883Z,84.80
2019-05-21T18:00:11.245Z,84.90
2019-05-21T18:02:38.679Z,85.20
2019-05-21T18:05:06.689Z,84.30
2019-05-21T18:07:34.425Z,84.30
2019-05-21T18:10:01.471Z,83.80
2019-05-21T18:12:31.949Z,84.20
2019-05-21T18:14:57.544Z,84.30
2019-05-21T18:17:24.526Z,84.30
2019-05-21T18:19:51.281Z,84.10
2019-05-21T18:22:19.045Z,83.70
2019-05-21T18:24:48.651Z,83.70
2019-05-21T18:27:13.906Z,83.20
2019-05-21T18:29:40.422Z,82.60
2019-05-21T18:32:06.638Z,82.40
2019-05-21T18:34:33.054Z,82.10
2019-05-21T18:36:59.396Z,82.10
2019-05-21T18:39:26.617Z,82.40
2019-05-21T18:41:52.937Z,83.20
2019-05-21T18:44:19.173Z,83.50
2019-05-21T18:46:45.506Z,84.30
2019-05-21T18:49:11.920Z,85.20
2019-05-21T18:51:38.167Z,85.80
2019-05-21T18:54:04.568Z,86.30
2019-05-21T18:56:31.129Z,86.80
2019-05-21T18:58:57.846Z,87.50
2019-05-21T19:01:25.258Z,87.30
2019-05-21T19:03:51.605Z,87.20
2019-05-21T19:06:18.103Z,87.50
2019-05-21T19:08:44.377Z,88.10
2019-05-21T19:11:11.005Z,88.40
2019-05-21T19:13:37.334Z,89.00
2019-05-21T19:16:03.670Z,88.80
2019-05-21T19:18:29.981Z,88.80
2019-05-21T19:20:56.317Z,89.30
2019-05-21T19:23:22.531Z,89.80
2019-05-21T19:25:49.768Z,90.40
2019-05-21T19:28:16.269Z,90.20
2019-05-21T19:30:43.492Z,90.30
2019-05-21T19:33:09.904Z,90.30
2019-05-21T19:35:36.347Z,90.10
2019-05-21T19:38:02.961Z,89.90
2019-05-21T19:40:29.178Z,90.00
2019-05-21T19:42:55.788Z,90.40
2019-05-21T19:45:22.225Z,90.90
2019-05-21T19:47:48.503Z,91.00
2019-05-21T19:50:15.520Z,91.10
2019-05-21T19:52:41.830Z,91.00
2019-05-21T19:55:08.248Z,91.20
2019-05-21T19:57:34.893Z,91.20
2019-05-21T20:00:01.319Z,91.40
2019-05-21T20:02:29.440Z,91.40
2019-05-21T20:04:55.987Z,91.60
2019-05-21T20:07:23.670Z,91.60
2019-05-21T20:09:51.017Z,91.70
2019-05-21T20:12:17.660Z,92.00
2019-05-21T20:14:44.889Z,91.60
2019-05-21T20:17:11.566Z,91.40
2019-05-21T20:19:39.114Z,91.40
2019-05-21T20:22:08.145Z,91.30
2019-05-21T20:24:35.180Z,91.30
2019-05-21T20:27:02.133Z,91.50
2019-05-21T20:29:29.437Z,91.60
2019-05-21T20:31:56.161Z,91.80
2019-05-21T20:34:22.502Z,91.90
2019-05-21T20:36:49.118Z,91.90
2019-05-21T20:39:15.741Z,92.10
2019-05-21T20:41:42.893Z,92.20
2019-05-21T20:44:11.206Z,92.30
2019-05-21T20:46:37.701Z,92.20
2019-05-21T20:49:05.261Z,92.10
2019-05-21T20:51:31.773Z,92.30
2019-05-21T20:53:58.209Z,92.40
2019-05-21T20:56:24.453Z,92.30
2019-05-21T20:58:50.682Z,92.40
2019-05-21T21:01:18.425Z,92.50
2019-05-21T21:03:44.699Z,92.60
2019-05-21T21:06:11.858Z,92.50
2019-05-21T21:08:38.591Z,92.60
2019-05-21T21:11:06.612Z,92.70
2019-05-21T21:13:33.060Z,92.70
2019-05-21T21:15:59.486Z,92.50
2019-05-21T21:18:26.665Z,92.80
2019-05-21T21:20:52.985Z,92.80
2019-05-21T21:23:21.593Z,92.90
2019-05-21T21:25:48.054Z,92.90
2019-05-21T21:28:14.269Z,93.00
2019-05-21T21:30:41.603Z,93.10
2019-05-21T21:33:09.556Z,93.40
2019-05-21T21:35:36.543Z,93.40
2019-05-21T21:38:05.444Z,93.30
2019-05-21T21:40:32.273Z,93.20
2019-05-21T21:42:58.902Z,93.20
2019-05-21T21:45:25.329Z,93.20
2019-05-21T21:47:53.483Z,93.20
2019-05-21T21:50:20.910Z,92.90
2019-05-21T21:52:47.366Z,93.00
2019-05-21T21:55:14.108Z,92.90
2019-05-21T21:57:40.314Z,93.00
2019-05-21T22:00:30.173Z,93.00
2019-05-21T22:03:01.277Z,92.90
2019-05-21T22:05:27.920Z,93.00
2019-05-21T22:07:54.381Z,92.90
2019-05-21T22:10:20.618Z,92.80
2019-05-21T22:12:46.852Z,92.80
2019-05-21T22:15:26.657Z,92.80
2019-05-21T22:17:53.689Z,92.70
2019-05-21T22:20:21.137Z,92.80
2019-05-21T22:22:47.504Z,92.80
2019-05-21T22:25:14.213Z,92.80
2019-05-21T22:27:40.625Z,92.70
2019-05-21T22:30:07.351Z,92.60
2019-05-21T22:32:33.645Z,92.80
2019-05-21T22:35:01.059Z,92.90
2019-05-21T22:37:27.294Z,92.90
2019-05-21T22:39:53.633Z,92.90
2019-05-21T22:42:21.789Z,92.80
2019-05-21T22:44:48.139Z,92.90
2019-05-21T22:47:15.564Z,92.90
2019-05-21T22:49:41.976Z,93.00
2019-05-21T22:52:08.413Z,92.80
2019-05-21T22:54:34.633Z,92.70
2019-05-21T22:57:00.853Z,92.60
2019-05-21T22:59:27.290Z,92.70
2019-05-21T23:01:55.409Z,92.60
2019-05-21T23:04:23.241Z,92.50
2019-05-21T23:06:51.675Z,92.50
2019-05-21T23:09:18.093Z,92.60
2019-05-21T23:11:44.494Z,92.60
2019-05-21T23:14:10.833Z,92.70
2019-05-21T23:16:37.251Z,92.60
2019-05-21T23:19:06.242Z,92.70
2019-05-21T23:21:37.317Z,92.70
2019-05-21T23:24:06.065Z,92.50
2019-05-21T23:26:33.581Z,92.60
2019-05-21T23:29:00.812Z,92.60
2019-05-21T23:31:27.921Z,92.40
2019-05-21T23:33:55.643Z,92.40
2019-05-21T23:36:22.085Z,92.40
2019-05-21T23:38:48.581Z,92.40
2019-05-21T23:41:17.889Z,92.20
2019-05-21T23:43:44.113Z,92.30
2019-05-21T23:46:10.433Z,92.50
2019-05-21T23:48:37.457Z,92.40
2019-05-21T23:51:04.423Z,92.40
2019-05-21T23:53:32.145Z,92.40
2019-05-21T23:55:58.470Z,92.30
2019-05-21T23:58:24.709Z,92.60
